CYUT

Repulse Bay Airport

Repulse Bay, Canada
METAR CYUT 182200Z 32010KT 25SM SCT015 BKN095 07/02 A2976 RMK SC4AC2 7.4/2.2/0.0 LAST STFD OB/NXT 191200 SLP082
Observed Flight Rules
Jun-18 @ 22:00 UTC (40 minutes ago) Visual Flight Rules
Wind Visibility Clouds
320° at 10 knots 25 miles
  • Scattered at 1,500' AGL
  • Broken at 9,500' AGL
Temperatures Readings
Current 7°C / 45°F
Dewpoint 2°C / 36°F
Humidity 71%
Altimeter 29.76" Hg
Pressure 1008.2 hPa
Elevation 24
METAR CYUT 182200Z 32010KT 25SM SCT015 BKN095 07/02 A2976 RMK SC4AC2 7.4/2.2/0.0 LAST STFD OB/NXT 191200 SLP082
Observed Flight Rules
Jun-18 @ 22:00 UTC
(40 minutes ago)
VFR
Wind Visibility
320° at 10 knots 25 miles
Clouds
  • Scattered at 1,500' AGL
  • Broken at 9,500' AGL
Temperature Dewpoint
7°C / 45°F 2°C / 36°F
Humidity Altimeter Pressure
71% 29.76" Hg 1008.2 hPa